• Join FlightAware (Why Join?)
  • Login
  • US Flag 
08:35PM EDT


 

Airport Tracker/Info


-or-


 

Live Flight TrackerFlight Track Log ✈ EJM848 ✈ 10-Oct-2013 ✈ KTEB - KENW

Flight Track Log - Related Links

Times and Time Zones

All times are in EDT time to prevent confusion due to time zone crossing. See the EJM848 flight status page for this flight to view local times or setup timezone preferences in your user account.

Time Position Orientation Groundspeed Altitude Reporting Facility
EDT Latitude Longitude Course Direction KTS MPH feet Rate Location/Type
09:37PM 40.8533 -74.0594 111° Southeast 145 167 200  Level FlightAware ADS-B
09:37PM 40.8632 -74.0577 North 165 190 1,000 3,120 Climbing FlightAware ADS-B
09:37PM 40.8670 -74.0559 20° North 175 201 1,200 2,760 Climbing FlightAware ADS-B
09:37PM 40.8750 -74.0506 27° Northeast 183 211 1,700 1,800 Climbing FlightAware ADS-B
09:37PM 40.8842 -74.0441 28° Northeast 184 212 1,900 1,500 Climbing FlightAware ADS-B
09:37PM 40.8833 -74.0500 306° West 180 207 2,100  Climbing New York TRACON
09:37PM 40.8888 -74.0411 26° Northeast 184 212 1,900 -2,040 Descending FlightAware ADS-B
09:37PM 40.8915 -74.0395 24° Northeast 185 213 1,900  Level FlightAware ADS-B
09:37PM 40.8948 -74.0381 18° North 188 216 1,900  Level FlightAware ADS-B
09:38PM 40.8974 -74.0375 10° North 193 222 1,900  Level FlightAware ADS-B
09:38PM 40.9004 -74.0374 North 200 230 1,900 720 Level FlightAware ADS-B
09:38PM 40.9048 -74.0380 354° North 208 239 2,000 1,500 Climbing FlightAware ADS-B
09:38PM 40.9082 -74.0393 344° North 213 245 2,100 1,260 Climbing FlightAware ADS-B
09:38PM 40.9169 -74.0462 329° Northwest 226 260 2,300 1,380 Climbing FlightAware ADS-B
09:38PM 40.9192 -74.0494 314° West 237 273 2,400 1,980 Climbing FlightAware ADS-B
09:38PM 40.9214 -74.0532 307° West 243 280 2,500 3,000 Climbing FlightAware ADS-B
09:38PM 40.9230 -74.0570 299° West 250 288 2,700 2,220 Climbing FlightAware ADS-B
09:38PM 40.9251 -74.0641 291° West 259 298 2,800 2,580 Climbing FlightAware ADS-B
09:38PM 40.9333 -74.0833 333° Northwest 247 284 3,400 3,660 Climbing New York TRACON
09:38PM 40.9263 -74.0853 274° West 275 316 3,600 5,280 Climbing FlightAware ADS-B
09:39PM 40.9255 -74.1291 269° West 291 335 5,800 5,040 Climbing FlightAware ADS-B
09:39PM 40.9287 -74.1513 281° West 296 341 6,800 4,860 Climbing FlightAware ADS-B
09:39PM 40.9333 -74.1833 270° West 296 341 8,500 4,620 Climbing New York TRACON
09:39PM 40.9450 -74.1958 296° West 296 341 8,900 3,000 Climbing FlightAware ADS-B
09:40PM 40.9552 -74.2218 297° West 306 352 9,600 2,520 Climbing FlightAware ADS-B
09:40PM 40.9874 -74.3058 297° West 344 396 11,500 3,480 Climbing FlightAware ADS-B
09:41PM 41.0116 -74.3688 297° West 373 429 14,100 4,440 Climbing FlightAware ADS-B
09:41PM 41.0283 -74.4128 299° West 364 419 15,600 3,540 Climbing New York Center
09:42PM 41.0764 -74.5392 297° West 378 435 19,100 3,480 Climbing New York Center
09:43PM 41.0656 -74.5614 306° West  Level FlightAware Approximate
09:43PM 41.1283 -74.6714 298° West 388 447 22,600  Level New York Center
09:44PM 41.1883 -74.8100 300° West 415 478 25,100 2,700 Climbing New York Center
09:45PM 41.2497 -74.9600 299° West 438 504 28,100 2,700 Climbing New York Center
09:46PM 41.3153 -75.1078 301° West 456 525 30,600 3,000 Climbing New York Center
09:47PM 41.3783 -75.2611 299° West 462 532 34,100 3,240 Climbing New York Center
09:48PM 41.4433 -75.4092 300° West 468 539 37,100 3,060 Climbing New York Center
09:49PM 41.4922 -75.5456 296° West 468 539 40,300 2,400 Climbing New York Center
09:50PM 41.5378 -75.6986 292° West 454 522 41,900 1,860 Climbing New York Center
09:51PM 41.5817 -75.8486 291° West 444 511 44,100 1,920 Climbing New York Center
09:52PM 41.6250 -75.9992 291° West 439 505 45,800 1,560 Climbing New York Center
09:53PM 41.6664 -76.1467 291° West 434 499 47,300 1,200 Climbing New York Center
09:54PM 41.7075 -76.2917 291° West 434 499 48,300 660 Climbing New York Center
09:55PM 41.7486 -76.4397 290° West 429 494 48,700 360 Climbing New York Center
09:56PM 41.7906 -76.6019 289° West 429 494 49,100 360 Climbing New York Center
09:57PM 41.8292 -76.7500 289° West 423 487 49,500 420 Climbing New York Center
09:58PM 41.8714 -76.8986 291° West 423 487 50,000 540 Climbing New York Center
10:00PM 41.9306 -77.1081 291° West 429 494 50,900 360 Climbing Cleveland Center
10:01PM 41.9711 -77.2578 290° West 426 490 51,000  Climbing Cleveland Center
10:02PM 42.0119 -77.4094 290° West 430 495 51,000  Level Cleveland Center
10:03PM 42.0514 -77.5617 289° West 430 495 51,000  Level Cleveland Center
10:04PM 42.0922 -77.7125 290° West 427 491 51,000  Level Cleveland Center
10:05PM 42.1328 -77.8683 289° West 435 501 51,000  Level Cleveland Center
10:06PM 42.1728 -78.0233 289° West 437 503 51,000  Level Cleveland Center
10:07PM 42.2131 -78.1742 290° West 429 494 51,000  Level Cleveland Center
10:08PM 42.2514 -78.3281 289° West 431 496 51,000  Level Cleveland Center
10:09PM 42.2972 -78.5089 289° West 425 489 51,000  Level Cleveland Center
10:10PM 42.3367 -78.6628 289° West 431 496 51,000  Level Cleveland Center
10:11PM 42.3747 -78.8172 288° West 432 497 51,000  Level Cleveland Center
10:12PM 42.4150 -78.9717 290° West 448 516 51,000  Level Cleveland Center
10:13PM 42.4567 -79.1375 289° West 430 495 51,000  Level Cleveland Center
10:14PM 42.4906 -79.2786 288° West 430 495 51,000  Level Cleveland Center
10:15PM 42.4950 -79.4417 272° West 434 499 51,000  Level Cleveland Center
10:16PM 42.4989 -79.6036 272° West 433 498 51,000  Level Cleveland Center
10:17PM 42.5028 -79.7958 272° West 428 493 51,000  Level Cleveland Center
10:18PM 42.5053 -79.9561 271° West 427 491 51,000  Level Cleveland Center
10:19PM 42.5072 -80.1144 271° West 429 494 51,000  Level Cleveland Center
10:20PM 42.5094 -80.2750 271° West 426 490 51,000  Level Cleveland Center
10:21PM 42.5117 -80.4375 271° West 429 494 51,000  Level Cleveland Center
10:22PM 42.5136 -80.6000 271° West 428 493 51,000  Level Cleveland Center
10:23PM 42.5175 -80.7681 272° West 438 504 51,000  Level Cleveland Center
10:24PM 42.5214 -80.9611 272° West 438 504 51,000  Level Cleveland Center
10:25PM 42.5222 -81.1247 270° West 433 498 51,000  Level Cleveland Center
10:26PM 42.5244 -81.2906 271° West 437 503 51,000  Level Cleveland Center
10:27PM 42.5250 -81.4561 270° West 437 503 51,000  Level Cleveland Center
10:28PM 42.5256 -81.6233 270° West 440 506 51,000  Level Cleveland Center
10:30PM 42.5272 -81.7978 271° West 438 504 51,000  Level Cleveland Center
10:31PM 42.5264 -81.9592 270° West 431 496 51,000  Level Cleveland Center
10:32PM 42.5278 -82.1208 271° West 431 496 51,000  Level Cleveland Center
10:33PM 42.5269 -82.2853 270° West 435 501 51,000  Level Cleveland Center
10:34PM 42.5275 -82.4486 270° West 436 502 51,000  Level Cleveland Center
10:35PM 42.5281 -82.6097 270° West 432 497 51,000  Level Cleveland Center
10:36PM 42.5267 -82.8039 270° West 432 497 51,000  Level Cleveland Center
10:37PM 42.5264 -82.9669 270° West 434 499 51,000  Level Cleveland Center
10:38PM 42.5253 -83.1286 270° West 434 499 51,000  Level Cleveland Center
10:39PM 42.5242 -83.2875 270° West 430 495 51,000  Level Cleveland Center
10:40PM 42.5236 -83.4444 270° West 424 488 51,000  Level Cleveland Center
10:41PM 42.5211 -83.6028 269° West 428 493 51,000  Level Cleveland Center
10:42PM 42.5186 -83.7931 269° West 428 493 51,000  Level Cleveland Center
10:43PM 42.5172 -83.9528 269° West 427 491 51,000  Level Cleveland Center
10:44PM 42.5153 -84.1086 269° West 420 483 51,000  Level Cleveland Center
10:45PM 42.5128 -84.2675 269° West 422 486 51,000  Level Cleveland Center
10:46PM 42.5097 -84.4236 269° West 420 483 51,000  Level Cleveland Center
10:47PM 42.5075 -84.5986 269° West 412 474 51,000  Level Chicago Center
10:48PM 42.5225 -84.7531 278° West 416 479 51,000 -60 Level Chicago Center
10:49PM 42.5397 -84.9089 279° West 423 487 50,900 -1,440 Descending Chicago Center
10:50PM 42.5578 -85.0717 279° West 457 526 48,100 -2,580 Descending Chicago Center
10:51PM 42.5764 -85.2442 278° West 459 528 45,700 -2,580 Descending Chicago Center
10:52PM 42.5947 -85.4136 278° West 448 516 42,900 -3,000 Descending Chicago Center
10:53PM 42.6125 -85.5825 278° West 447 514 39,600 -3,120 Descending Chicago Center
10:54PM 42.6297 -85.7486 278° West 438 504 36,600 -2,940 Descending Chicago Center
10:55PM 42.6461 -85.9103 278° West 423 487 33,700 -2,820 Descending Chicago Center
10:56PM 42.6622 -86.0653 278° West 407 468 30,900 -2,940 Descending Chicago Center
10:57PM 42.6797 -86.2422 278° West 385 443 27,700 -2,880 Descending Chicago Center
10:58PM 42.6936 -86.3836 278° West 368 423 25,100 -2,520 Descending Chicago Center
10:59PM 42.7067 -86.5186 278° West 356 410 22,600 -2,400 Descending Chicago Center
11:00PM 42.7189 -86.6486 277° West 343 395 20,200 -2,400 Descending Chicago Center
11:01PM 42.7319 -86.7811 278° West 360 414 17,800 -2,460 Descending Chicago Center
11:02PM 42.7444 -86.9169 277° West 364 419 15,300 -2,040 Descending Chicago Center
11:03PM 42.7567 -87.0481 277° West 339 390 13,700 -1,320 Descending Chicago Center
11:04PM 42.7678 -87.1714 277° West 323 372 12,700 -1,020 Descending Chicago Center
11:05PM 42.7514 -87.2861 259° West 309 356 11,700 -1,140 Descending Chicago Center
11:06PM 42.7269 -87.4119 255° West 294 338 10,500 -1,320 Descending Chicago Center
11:07PM 42.7061 -87.5175 255° West 285 328 9,100 -1,740 Descending Chicago Center
11:08PM 42.6867 -87.6192 255° West 278 320 7,000 -1,620 Descending Chicago Center
11:09PM 42.6675 -87.7175 255° West 268 308 5,900 -1,080 Descending Chicago Center
11:10PM 42.6422 -87.8119 250° West 268 308 4,900 -960 Descending Chicago Center
11:11PM 42.6203 -87.8994 251° West 256 295 4,000 -540 Descending Chicago Center
11:12PM 42.6089 -87.9903 260° West 253 291 3,900 -120 Descending Chicago Center
11:13PM 42.6050 -88.0844 267° West 253 291 3,800 -360 Descending Chicago Center
11:14PM 42.5822 -88.1586 247° West 228 262 3,200 -480 Descending Chicago Center
11:15PM 42.5367 -88.1692 190° South 217 250 2,900 -120 Descending Chicago Center
11:17PM 42.5400 -88.0839 87° East 207 238 3,000 -300 Climbing Chicago Center
11:18PM 42.5603 -88.0278 64° Northeast 188 216 2,300 -840 Descending Chicago Center
11:19PM 42.5764 -87.9858 62° Northeast 138 159 1,400 -780 Descending Chicago Center
11:20PM 42.5903 -87.9497 62° Northeast 117 135 800 -360 Descending Chicago Center
11:21PM 42.6042 -87.9125 63° Northeast 115 132 700 -120 Descending Chicago Center